createdAt,value
2018-03-15T00:00:32.294Z,11.10
2018-03-15T00:02:59.691Z,10.50
2018-03-15T00:05:27.033Z,10.30
2018-03-15T00:07:54.400Z,10.77
2018-03-15T00:10:21.759Z,10.53
2018-03-15T00:12:49.149Z,10.10
2018-03-15T00:15:16.502Z,11.00
2018-03-15T00:17:43.892Z,10.03
2018-03-15T00:20:11.304Z,10.87
2018-03-15T00:22:38.680Z,10.33
2018-03-15T00:25:06.151Z,11.57
2018-03-15T00:27:33.519Z,10.47
2018-03-15T00:30:00.871Z,10.80
2018-03-15T00:32:28.263Z,10.73
2018-03-15T00:34:55.614Z,10.07
2018-03-15T00:37:22.985Z,11.60
2018-03-15T00:39:50.335Z,10.50
2018-03-15T00:42:17.708Z,10.47
2018-03-15T00:44:45.058Z,10.60
2018-03-15T00:47:12.459Z,11.67
2018-03-15T00:49:39.796Z,11.43
2018-03-15T00:52:07.184Z,11.17
2018-03-15T00:54:34.613Z,13.13
2018-03-15T00:57:01.982Z,12.43
2018-03-15T00:59:29.527Z,11.43
2018-03-15T01:01:56.868Z,9.57
2018-03-15T01:04:24.258Z,12.13
2018-03-15T01:06:51.643Z,10.57
2018-03-15T01:09:19.012Z,11.97
2018-03-15T01:11:46.364Z,11.23
2018-03-15T01:14:13.865Z,11.70
2018-03-15T01:16:41.230Z,11.00
2018-03-15T01:19:08.600Z,11.30
2018-03-15T01:21:35.963Z,10.77
2018-03-15T01:24:03.384Z,10.57
2018-03-15T01:26:30.735Z,12.00
2018-03-15T01:28:58.157Z,12.00
2018-03-15T01:31:25.488Z,11.40
2018-03-15T01:33:52.867Z,11.73
2018-03-15T01:36:20.211Z,11.77
2018-03-15T01:38:47.603Z,11.40
2018-03-15T01:41:14.978Z,12.13
2018-03-15T01:43:42.354Z,12.73
2018-03-15T01:46:09.707Z,13.47
2018-03-15T01:48:37.086Z,12.60
2018-03-15T01:51:04.441Z,13.13
2018-03-15T01:53:31.846Z,12.60
2018-03-15T01:55:59.177Z,13.33
2018-03-15T01:58:26.562Z,13.73
2018-03-15T02:00:53.924Z,13.57
2018-03-15T02:03:21.302Z,12.90
2018-03-15T02:05:48.659Z,14.77
2018-03-15T02:08:16.044Z,14.23
2018-03-15T02:10:43.423Z,13.17
2018-03-15T02:13:10.845Z,14.87
2018-03-15T02:15:38.200Z,13.93
2018-03-15T02:18:05.543Z,14.70
2018-03-15T02:20:32.917Z,13.17
2018-03-15T02:23:00.290Z,14.23
2018-03-15T02:25:27.767Z,13.50
2018-03-15T02:27:55.134Z,14.27
2018-03-15T02:30:22.547Z,13.93
2018-03-15T02:32:49.914Z,14.70
2018-03-15T02:35:17.284Z,14.17
2018-03-15T02:37:44.634Z,14.80
2018-03-15T02:40:12.101Z,14.20
2018-03-15T02:42:39.471Z,14.10
2018-03-15T02:45:06.868Z,14.70
2018-03-15T02:47:34.215Z,14.90
2018-03-15T02:50:01.629Z,14.13
2018-03-15T02:52:28.985Z,13.83
2018-03-15T02:54:56.434Z,12.43
2018-03-15T02:57:23.897Z,14.10
2018-03-15T02:59:51.350Z,14.83
2018-03-15T03:02:18.705Z,14.50
2018-03-15T03:04:46.167Z,16.07
2018-03-15T03:07:13.521Z,13.90
2018-03-15T03:09:40.892Z,14.73
2018-03-15T03:12:08.230Z,16.13
2018-03-15T03:14:35.592Z,14.90
2018-03-15T03:17:03.552Z,16.57
2018-03-15T03:19:30.921Z,14.47
2018-03-15T03:21:58.287Z,16.27
2018-03-15T03:24:25.655Z,14.87
2018-03-15T03:26:53.089Z,15.00
2018-03-15T03:29:20.457Z,16.40
2018-03-15T03:31:47.819Z,17.20
2018-03-15T03:34:15.183Z,15.67
2018-03-15T03:36:42.535Z,17.03
2018-03-15T03:39:09.932Z,16.40
2018-03-15T03:41:37.285Z,15.80
2018-03-15T03:44:04.667Z,16.30
2018-03-15T03:46:32.039Z,17.83
2018-03-15T03:48:59.384Z,17.10
2018-03-15T03:51:26.758Z,17.30
2018-03-15T03:53:54.115Z,16.93
2018-03-15T03:56:21.492Z,18.27
2018-03-15T03:58:48.860Z,17.03
2018-03-15T04:01:16.226Z,16.40
2018-03-15T04:03:43.610Z,16.03
2018-03-15T04:06:11.373Z,16.30
2018-03-15T04:08:38.730Z,16.30
2018-03-15T04:11:06.174Z,16.13
2018-03-15T04:13:33.525Z,16.83
2018-03-15T04:16:00.915Z,18.40
2018-03-15T04:18:28.258Z,17.10
2018-03-15T04:20:55.639Z,17.47
2018-03-15T04:23:22.988Z,17.43
2018-03-15T04:25:50.362Z,17.27
2018-03-15T04:28:17.769Z,16.97
2018-03-15T04:30:45.168Z,16.60
2018-03-15T04:33:12.581Z,16.53
2018-03-15T04:35:39.930Z,16.60
2018-03-15T04:38:07.275Z,19.37
2018-03-15T04:40:34.741Z,17.17
2018-03-15T04:43:02.092Z,16.43
2018-03-15T04:45:29.566Z,17.80
2018-03-15T04:47:56.910Z,16.20
2018-03-15T04:50:24.308Z,16.60
2018-03-15T04:52:51.684Z,17.43
2018-03-15T04:55:19.056Z,16.90
2018-03-15T04:57:46.399Z,17.10
2018-03-15T05:00:13.801Z,17.37
2018-03-15T05:02:41.163Z,16.40
2018-03-15T05:05:08.559Z,15.63
2018-03-15T05:07:35.947Z,18.13
2018-03-15T05:10:03.305Z,19.20
2018-03-15T05:12:30.676Z,17.07
2018-03-15T05:14:58.047Z,17.13
2018-03-15T05:17:25.436Z,17.70
2018-03-15T05:19:52.790Z,18.13
2018-03-15T05:22:20.216Z,17.43
2018-03-15T05:24:47.560Z,16.87
2018-03-15T05:27:14.936Z,17.90
2018-03-15T05:29:42.299Z,17.87
2018-03-15T05:32:09.685Z,17.60
2018-03-15T05:34:37.043Z,18.63
2018-03-15T05:37:04.415Z,17.40
2018-03-15T05:39:31.770Z,17.13
2018-03-15T05:41:59.226Z,17.80
2018-03-15T05:44:26.615Z,17.57
2018-03-15T05:46:53.997Z,18.60
2018-03-15T05:49:21.349Z,18.50
2018-03-15T05:51:48.765Z,20.97
2018-03-15T05:54:16.107Z,19.40
2018-03-15T05:56:43.560Z,18.70
2018-03-15T05:59:11.018Z,18.33
2018-03-15T06:01:38.386Z,18.87
2018-03-15T06:04:05.769Z,19.30
2018-03-15T06:06:33.137Z,19.67
2018-03-15T06:09:00.506Z,18.07
2018-03-15T06:11:27.926Z,18.73
2018-03-15T06:13:55.319Z,18.40
2018-03-15T06:16:22.694Z,18.53
2018-03-15T06:18:50.044Z,19.13
2018-03-15T06:21:17.425Z,17.23
2018-03-15T06:23:44.798Z,18.80
2018-03-15T06:26:12.168Z,19.73
2018-03-15T06:28:39.523Z,18.50
2018-03-15T06:31:06.894Z,19.57
2018-03-15T06:33:34.244Z,19.80
2018-03-15T06:36:01.604Z,22.27
2018-03-15T06:38:29.001Z,20.47
2018-03-15T06:40:56.386Z,20.90
2018-03-15T06:43:23.754Z,22.47
2018-03-15T06:45:51.140Z,25.37
2018-03-15T06:48:18.524Z,22.97
2018-03-15T06:50:45.863Z,23.03
2018-03-15T06:53:13.254Z,21.37
2018-03-15T06:55:40.591Z,21.27
2018-03-15T06:58:07.980Z,20.30
2018-03-15T07:00:35.325Z,21.97
2018-03-15T07:03:02.703Z,27.53
2018-03-15T07:05:30.070Z,24.23
2018-03-15T07:07:57.468Z,22.70
2018-03-15T07:10:24.887Z,22.47
2018-03-15T07:12:52.219Z,23.43
2018-03-15T07:15:19.564Z,35.80
2018-03-15T07:17:46.991Z,41.17
2018-03-15T07:20:14.347Z,25.77
2018-03-15T07:22:41.713Z,27.57
2018-03-15T07:25:09.075Z,26.00
2018-03-15T07:27:36.450Z,24.50
2018-03-15T07:30:03.791Z,22.57
2018-03-15T07:32:31.155Z,25.40
2018-03-15T07:34:58.492Z,33.60
2018-03-15T07:37:25.859Z,32.73
2018-03-15T07:39:53.201Z,30.57
2018-03-15T07:42:20.569Z,33.60
2018-03-15T07:44:47.920Z,32.10
2018-03-15T07:47:15.286Z,22.20
2018-03-15T07:49:42.621Z,19.13
2018-03-15T07:52:09.990Z,23.13
2018-03-15T07:54:37.342Z,20.70
2018-03-15T07:57:04.712Z,20.03
2018-03-15T07:59:32.062Z,21.40
2018-03-15T08:01:59.405Z,20.90
2018-03-15T08:04:26.792Z,18.97
2018-03-15T08:06:54.132Z,20.60
2018-03-15T08:09:21.517Z,19.63
2018-03-15T08:11:48.871Z,19.23
2018-03-15T08:14:16.247Z,19.60
2018-03-15T08:16:43.586Z,19.97
2018-03-15T08:19:10.970Z,19.33
2018-03-15T08:21:38.317Z,18.30
2018-03-15T08:24:05.707Z,20.50
2018-03-15T08:26:33.126Z,19.97
2018-03-15T08:29:00.500Z,20.57
2018-03-15T08:31:27.859Z,18.67
2018-03-15T08:33:55.227Z,20.20
2018-03-15T08:36:22.579Z,20.00
2018-03-15T08:38:49.949Z,20.00
2018-03-15T08:41:17.348Z,18.10
2018-03-15T08:43:44.704Z,16.93
2018-03-15T08:46:12.073Z,18.47
2018-03-15T08:48:39.467Z,18.17
2018-03-15T08:51:06.837Z,17.60
2018-03-15T08:53:34.227Z,18.10
2018-03-15T08:56:01.566Z,19.07
2018-03-15T08:58:28.932Z,17.03
2018-03-15T09:00:56.282Z,17.33
2018-03-15T09:03:23.686Z,19.50
2018-03-15T09:05:51.156Z,16.47
2018-03-15T09:08:18.420Z,17.10
2018-03-15T09:10:45.834Z,16.80
2018-03-15T09:13:13.197Z,19.00
2018-03-15T09:15:40.534Z,17.33
2018-03-15T09:18:07.902Z,14.50
2018-03-15T09:20:35.259Z,17.43
2018-03-15T09:23:02.653Z,16.20
2018-03-15T09:25:30.016Z,14.57
2018-03-15T09:27:57.394Z,14.90
2018-03-15T09:30:24.737Z,14.67
2018-03-15T09:32:52.132Z,14.80
2018-03-15T09:35:19.492Z,14.20
2018-03-15T09:37:46.853Z,14.17
2018-03-15T09:40:14.250Z,14.77
2018-03-15T09:42:41.603Z,14.07
2018-03-15T09:45:09.035Z,13.60
2018-03-15T09:47:36.433Z,12.83
2018-03-15T09:50:03.859Z,12.07
2018-03-15T09:52:31.262Z,13.93
2018-03-15T09:54:58.649Z,12.00
2018-03-15T09:57:26.024Z,12.83
2018-03-15T09:59:53.418Z,12.70
2018-03-15T10:02:20.788Z,12.93
2018-03-15T10:04:48.188Z,25.80
2018-03-15T10:07:15.574Z,13.57
2018-03-15T10:09:42.975Z,13.10
2018-03-15T10:12:10.408Z,13.03
2018-03-15T10:14:37.803Z,11.40
2018-03-15T10:17:05.167Z,11.57
2018-03-15T10:19:32.559Z,12.57
2018-03-15T10:21:59.925Z,10.97
2018-03-15T10:24:27.316Z,12.07
2018-03-15T10:26:54.762Z,11.47
2018-03-15T10:29:22.164Z,10.40
2018-03-15T10:31:49.550Z,11.90
2018-03-15T10:34:16.952Z,12.80
2018-03-15T10:36:44.325Z,11.80
2018-03-15T10:39:11.723Z,12.53
2018-03-15T10:41:39.081Z,12.00
2018-03-15T10:44:06.472Z,11.67
2018-03-15T10:46:33.873Z,7.83
2018-03-15T10:49:01.263Z,8.20
2018-03-15T10:51:28.616Z,7.70
2018-03-15T10:53:56.012Z,7.63
2018-03-15T10:56:23.450Z,8.30
2018-03-15T10:58:50.865Z,7.47
2018-03-15T11:01:22.099Z,7.80
2018-03-15T11:03:50.430Z,8.43
2018-03-15T11:06:23.532Z,9.70
2018-03-15T11:08:56.631Z,9.60
2018-03-15T11:11:24.002Z,8.23
2018-03-15T11:13:51.359Z,7.80
2018-03-15T11:16:18.742Z,8.20
2018-03-15T11:18:46.123Z,8.60
2018-03-15T11:21:13.507Z,8.33
2018-03-15T11:23:40.876Z,9.37
2018-03-15T11:26:08.260Z,8.30
2018-03-15T11:28:35.612Z,8.30
2018-03-15T11:31:03.005Z,10.10
2018-03-15T11:33:30.371Z,7.67
2018-03-15T11:35:57.769Z,9.17
2018-03-15T11:38:25.115Z,8.70
2018-03-15T11:40:52.590Z,9.37
2018-03-15T11:43:19.987Z,7.07
2018-03-15T11:45:47.376Z,8.37
2018-03-15T11:48:14.744Z,8.43
2018-03-15T11:50:42.203Z,7.57
2018-03-15T11:53:09.519Z,8.00
2018-03-15T11:55:36.896Z,8.20
2018-03-15T11:58:04.250Z,7.83
2018-03-15T12:00:31.643Z,7.70
2018-03-15T12:02:59.049Z,7.23
2018-03-15T12:05:26.433Z,7.70
2018-03-15T12:07:53.795Z,8.07
2018-03-15T12:10:21.208Z,6.23
2018-03-15T12:12:48.587Z,8.13
2018-03-15T12:15:15.989Z,6.87
2018-03-15T12:17:43.375Z,7.87
2018-03-15T12:20:10.745Z,7.33
2018-03-15T12:22:38.074Z,7.90
2018-03-15T12:25:05.453Z,6.93
2018-03-15T12:27:32.787Z,6.27
2018-03-15T12:30:00.143Z,7.20
2018-03-15T12:32:27.552Z,7.97
2018-03-15T12:34:54.897Z,7.17
2018-03-15T12:37:22.249Z,8.40
2018-03-15T12:39:49.597Z,7.93
2018-03-15T12:42:16.956Z,9.43
2018-03-15T12:44:44.304Z,7.67
2018-03-15T12:47:11.712Z,10.17
2018-03-15T12:49:39.052Z,9.17
2018-03-15T12:52:06.420Z,6.87
2018-03-15T12:54:33.774Z,7.37
2018-03-15T12:57:01.203Z,8.43
2018-03-15T12:59:28.535Z,8.10
2018-03-15T13:01:55.899Z,7.80
2018-03-15T13:04:23.251Z,8.20
2018-03-15T13:06:50.609Z,7.57
2018-03-15T13:09:17.956Z,7.30
2018-03-15T13:11:45.314Z,9.17
2018-03-15T13:14:12.660Z,7.30
2018-03-15T13:16:40.057Z,8.20
2018-03-15T13:19:07.397Z,9.53
2018-03-15T13:21:34.779Z,8.83
2018-03-15T13:24:02.112Z,8.43
2018-03-15T13:26:29.492Z,8.23
2018-03-15T13:28:56.827Z,8.07
2018-03-15T13:31:24.272Z,8.77
2018-03-15T13:33:51.658Z,9.73
2018-03-15T13:36:19.010Z,8.40
2018-03-15T13:38:46.364Z,8.53
2018-03-15T13:41:13.751Z,8.60
2018-03-15T13:43:41.091Z,9.03
2018-03-15T13:46:08.490Z,8.27
2018-03-15T13:48:35.827Z,9.60
2018-03-15T13:51:03.168Z,9.40
2018-03-15T13:53:30.566Z,10.53
2018-03-15T13:55:57.905Z,9.10
2018-03-15T13:58:25.324Z,9.73
2018-03-15T14:00:52.695Z,9.57
2018-03-15T14:03:20.060Z,9.70
2018-03-15T14:05:47.398Z,8.90
2018-03-15T14:08:14.768Z,9.13
2018-03-15T14:10:42.105Z,9.53
2018-03-15T14:13:09.509Z,9.90
2018-03-15T14:15:36.853Z,10.17
2018-03-15T14:18:04.217Z,9.87
2018-03-15T14:20:31.551Z,9.97
2018-03-15T14:22:58.921Z,11.30
2018-03-15T14:25:26.258Z,10.83
2018-03-15T14:27:53.624Z,9.83
2018-03-15T14:30:20.956Z,9.97
2018-03-15T14:32:48.315Z,8.90
2018-03-15T14:35:15.645Z,10.03
2018-03-15T14:37:43.010Z,10.43
2018-03-15T14:40:10.349Z,9.90
2018-03-15T14:42:37.706Z,10.47
2018-03-15T14:45:05.045Z,10.10
2018-03-15T14:47:32.448Z,10.87
2018-03-15T14:49:59.800Z,10.30
2018-03-15T14:52:27.179Z,11.50
2018-03-15T14:54:54.522Z,10.83
2018-03-15T14:57:21.902Z,10.00
2018-03-15T14:59:49.238Z,11.53
2018-03-15T15:02:16.598Z,9.60
2018-03-15T15:04:44.680Z,11.70
2018-03-15T15:07:12.051Z,10.30
2018-03-15T15:09:39.384Z,9.93
2018-03-15T15:12:06.749Z,11.40
2018-03-15T15:14:34.096Z,10.90
2018-03-15T15:17:01.440Z,10.87
2018-03-15T15:19:28.808Z,10.47
2018-03-15T15:21:56.147Z,11.30
2018-03-15T15:24:23.523Z,11.13
2018-03-15T15:26:50.858Z,9.83
2018-03-15T15:29:18.227Z,10.40
2018-03-15T15:31:45.565Z,10.17
2018-03-15T15:34:12.926Z,10.47
2018-03-15T15:36:40.275Z,10.43
2018-03-15T15:39:07.652Z,10.07
2018-03-15T15:41:34.987Z,11.27
2018-03-15T15:44:02.351Z,9.60
2018-03-15T15:46:29.702Z,9.70
2018-03-15T15:48:57.068Z,10.20
2018-03-15T15:51:24.398Z,9.23
2018-03-15T15:53:51.763Z,9.20
2018-03-15T15:56:19.095Z,8.90
2018-03-15T15:58:46.481Z,10.00
2018-03-15T16:01:13.840Z,9.93
2018-03-15T16:03:41.248Z,10.20
2018-03-15T16:06:08.591Z,10.10
2018-03-15T16:08:35.944Z,9.57
2018-03-15T16:11:03.279Z,10.10
2018-03-15T16:13:30.646Z,9.53
2018-03-15T16:15:57.987Z,9.07
2018-03-15T16:18:25.355Z,9.50
2018-03-15T16:20:52.684Z,9.43
2018-03-15T16:23:20.050Z,13.47
2018-03-15T16:25:47.439Z,9.60
2018-03-15T16:28:14.779Z,9.97
2018-03-15T16:30:42.115Z,9.13
2018-03-15T16:33:09.473Z,8.33
2018-03-15T16:35:36.806Z,9.27
2018-03-15T16:38:04.162Z,9.10
2018-03-15T16:40:31.498Z,8.73
2018-03-15T16:42:58.827Z,8.67
2018-03-15T16:45:26.190Z,9.10
2018-03-15T16:47:53.525Z,9.50
2018-03-15T16:50:20.882Z,8.20
2018-03-15T16:52:48.210Z,8.67
2018-03-15T16:55:15.565Z,7.53
2018-03-15T16:57:42.894Z,8.57
2018-03-15T17:00:10.255Z,7.73
2018-03-15T17:02:37.611Z,8.07
2018-03-15T17:05:04.966Z,8.10
2018-03-15T17:07:32.308Z,7.83
2018-03-15T17:09:59.662Z,9.33
2018-03-15T17:12:27.006Z,7.97
2018-03-15T17:14:54.375Z,9.40
2018-03-15T17:17:21.706Z,8.73
2018-03-15T17:19:49.089Z,8.23
2018-03-15T17:22:16.460Z,9.13
2018-03-15T17:24:44.453Z,8.07
2018-03-15T17:27:11.783Z,8.50
2018-03-15T17:29:39.141Z,8.60
2018-03-15T17:32:06.475Z,8.63
2018-03-15T17:34:33.838Z,8.33
2018-03-15T17:37:01.169Z,8.77
2018-03-15T17:39:28.536Z,8.77
2018-03-15T17:41:55.869Z,9.53
2018-03-15T17:44:23.232Z,8.73
2018-03-15T17:46:50.577Z,8.20
2018-03-15T17:49:17.938Z,8.90
2018-03-15T17:51:45.271Z,7.83
2018-03-15T17:54:12.627Z,9.30
2018-03-15T17:56:39.959Z,7.60
2018-03-15T17:59:07.321Z,8.00
2018-03-15T18:01:34.676Z,8.20
2018-03-15T18:04:02.088Z,7.97
2018-03-15T18:06:29.428Z,8.43
2018-03-15T18:08:56.762Z,8.20
2018-03-15T18:11:24.122Z,8.30
2018-03-15T18:13:51.484Z,8.33
2018-03-15T18:16:18.849Z,8.73
2018-03-15T18:18:46.182Z,10.07
2018-03-15T18:21:13.569Z,8.00
2018-03-15T18:23:40.913Z,8.97
2018-03-15T18:26:08.277Z,8.90
2018-03-15T18:28:35.621Z,14.80
2018-03-15T18:31:02.990Z,15.23
2018-03-15T18:33:31.296Z,11.40
2018-03-15T18:35:58.672Z,12.77
2018-03-15T18:38:26.018Z,38.00
2018-03-15T18:40:53.407Z,34.40
2018-03-15T18:43:20.768Z,29.60
2018-03-15T18:45:48.133Z,42.13
2018-03-15T18:48:15.476Z,38.00
2018-03-15T18:50:42.848Z,34.37
2018-03-15T18:53:10.201Z,43.50
2018-03-15T18:55:37.568Z,36.40
2018-03-15T18:58:04.910Z,18.53
2018-03-15T19:00:32.278Z,16.60
2018-03-15T19:02:59.627Z,14.40
2018-03-15T19:05:26.994Z,10.83
2018-03-15T19:07:54.370Z,11.23
2018-03-15T19:10:21.799Z,12.80
2018-03-15T19:12:49.143Z,11.40
2018-03-15T19:15:16.514Z,14.40
2018-03-15T19:17:43.868Z,13.10
2018-03-15T19:20:11.239Z,12.60
2018-03-15T19:22:38.604Z,12.90
2018-03-15T19:25:05.972Z,12.17
2018-03-15T19:27:33.333Z,12.70
2018-03-15T19:30:00.698Z,11.67
2018-03-15T19:32:28.086Z,11.87
2018-03-15T19:34:55.451Z,11.10
2018-03-15T19:37:22.815Z,10.37
2018-03-15T19:39:50.155Z,10.97
2018-03-15T19:42:17.524Z,15.87
2018-03-15T19:44:44.862Z,20.20
2018-03-15T19:47:12.232Z,15.87
2018-03-15T19:49:39.571Z,18.40
2018-03-15T19:52:06.940Z,15.07
2018-03-15T19:54:34.286Z,15.13
2018-03-15T19:57:01.651Z,18.30
2018-03-15T19:59:29.003Z,15.73
2018-03-15T20:01:56.370Z,16.20
2018-03-15T20:04:23.722Z,15.40
2018-03-15T20:06:51.090Z,17.20
2018-03-15T20:09:18.435Z,17.30
2018-03-15T20:11:45.809Z,18.67
2018-03-15T20:14:13.207Z,18.07
2018-03-15T20:16:40.550Z,19.20
2018-03-15T20:19:13.763Z,20.43
2018-03-15T20:21:41.132Z,17.10
2018-03-15T20:24:14.395Z,16.37
2018-03-15T20:26:48.779Z,14.40
2018-03-15T20:29:16.124Z,13.27
2018-03-15T20:31:43.490Z,15.83
2018-03-15T20:34:10.848Z,14.00
2018-03-15T20:36:38.222Z,13.10
2018-03-15T20:39:11.380Z,13.03
2018-03-15T20:41:38.774Z,15.93
2018-03-15T20:44:06.139Z,18.17
2018-03-15T20:46:39.376Z,14.27
2018-03-15T20:49:11.643Z,13.03
2018-03-15T20:51:39.003Z,15.30
2018-03-15T20:54:06.349Z,14.30
2018-03-15T20:56:33.955Z,13.53
2018-03-15T20:59:01.296Z,15.30
2018-03-15T21:01:28.667Z,14.50
2018-03-15T21:03:56.008Z,15.10
2018-03-15T21:06:23.380Z,14.97
2018-03-15T21:08:50.727Z,12.63
2018-03-15T21:11:18.129Z,14.70
2018-03-15T21:13:45.468Z,11.80
2018-03-15T21:16:12.850Z,11.90
2018-03-15T21:18:40.188Z,12.67
2018-03-15T21:21:07.556Z,10.40
2018-03-15T21:23:34.893Z,10.30
2018-03-15T21:26:02.285Z,10.43
2018-03-15T21:28:29.633Z,9.07
2018-03-15T21:30:56.968Z,8.80
2018-03-15T21:33:24.341Z,9.07
2018-03-15T21:35:51.674Z,9.07
2018-03-15T21:38:19.056Z,8.90
2018-03-15T21:40:46.488Z,8.90
2018-03-15T21:43:13.855Z,10.07
2018-03-15T21:45:41.195Z,10.10
2018-03-15T21:48:08.565Z,10.17
2018-03-15T21:50:35.902Z,8.83
2018-03-15T21:53:03.276Z,9.30
2018-03-15T21:55:30.629Z,9.97
2018-03-15T21:57:58.038Z,8.67
2018-03-15T22:00:25.383Z,8.70
2018-03-15T22:02:53.140Z,8.97
2018-03-15T22:05:20.542Z,9.23
2018-03-15T22:07:47.974Z,8.50
2018-03-15T22:10:15.376Z,9.03
2018-03-15T22:12:42.790Z,9.30
2018-03-15T22:15:10.194Z,10.60
2018-03-15T22:17:37.665Z,11.10
2018-03-15T22:20:05.090Z,11.17
2018-03-15T22:22:32.756Z,11.30
2018-03-15T22:25:00.134Z,10.10
2018-03-15T22:27:27.551Z,10.77
2018-03-15T22:29:54.952Z,10.20
2018-03-15T22:32:22.398Z,9.80
2018-03-15T22:34:49.857Z,10.13
2018-03-15T22:37:17.260Z,10.87
2018-03-15T22:39:44.648Z,11.23
2018-03-15T22:42:12.064Z,12.50
2018-03-15T22:44:39.469Z,11.67
2018-03-15T22:47:06.918Z,13.10
2018-03-15T22:49:34.323Z,11.93
2018-03-15T22:52:01.743Z,12.10
2018-03-15T22:54:29.137Z,12.33
2018-03-15T22:56:56.874Z,10.53
2018-03-15T22:59:24.325Z,12.63
2018-03-15T23:01:51.713Z,12.63
2018-03-15T23:04:19.138Z,12.10
2018-03-15T23:06:46.545Z,10.33
2018-03-15T23:09:14.011Z,12.23
2018-03-15T23:11:41.392Z,12.70
2018-03-15T23:14:08.802Z,13.00
2018-03-15T23:16:36.185Z,11.50
2018-03-15T23:19:03.661Z,12.20
2018-03-15T23:21:31.065Z,11.40
2018-03-15T23:23:58.478Z,11.30
2018-03-15T23:26:25.873Z,11.80
2018-03-15T23:28:53.300Z,11.50
2018-03-15T23:31:20.684Z,11.53
2018-03-15T23:33:48.169Z,12.30
2018-03-15T23:36:15.563Z,9.93
2018-03-15T23:38:42.969Z,9.80
2018-03-15T23:41:10.352Z,10.03
2018-03-15T23:43:37.761Z,10.47
2018-03-15T23:46:05.162Z,10.50
2018-03-15T23:48:32.592Z,10.43
2018-03-15T23:50:59.978Z,10.27
2018-03-15T23:53:27.380Z,9.43
2018-03-15T23:55:54.798Z,9.30
2018-03-15T23:58:22.257Z,9.50
